createdAt,value
2018-11-02T00:00:11.040Z,998.11
2018-11-02T00:01:11.011Z,998.10
2018-11-02T00:02:11.007Z,998.05
2018-11-02T00:03:10.986Z,998.00
2018-11-02T00:04:11.008Z,997.92
2018-11-02T00:05:11.000Z,997.96
2018-11-02T00:06:11.019Z,998.04
2018-11-02T00:07:10.949Z,998.05
2018-11-02T00:08:10.935Z,998.04
2018-11-02T00:09:10.922Z,998.06
2018-11-02T00:10:10.912Z,998.09
2018-11-02T00:17:15.469Z,998.21
2018-11-02T00:18:15.501Z,998.24
2018-11-02T00:19:15.444Z,998.24
2018-11-02T00:20:15.435Z,998.28
2018-11-02T00:21:15.426Z,998.29
2018-11-02T00:22:15.414Z,998.29
2018-11-02T00:23:15.403Z,998.24
2018-11-02T00:24:15.394Z,998.18
2018-11-02T00:25:15.388Z,998.19
2018-11-02T00:26:15.370Z,998.20
2018-11-02T00:27:15.362Z,998.16
2018-11-02T00:28:15.347Z,998.29
2018-11-02T00:29:15.342Z,998.26
2018-11-02T00:30:15.326Z,998.36
2018-11-02T00:31:15.314Z,998.36
2018-11-02T00:32:15.306Z,998.46
2018-11-02T00:33:15.292Z,998.51
2018-11-02T00:34:15.285Z,998.59
2018-11-02T00:35:15.271Z,998.62
2018-11-02T00:36:15.258Z,998.63
2018-11-02T00:37:15.250Z,998.68
2018-11-02T00:38:15.288Z,998.75
2018-11-02T00:39:15.234Z,998.71
2018-11-02T00:40:15.216Z,998.71
2018-11-02T00:41:15.209Z,998.79
2018-11-02T00:42:15.194Z,998.80
2018-11-02T00:43:15.184Z,998.83
2018-11-02T00:44:15.334Z,998.85
2018-11-02T00:45:15.160Z,998.91
2018-11-02T00:46:15.150Z,998.84
2018-11-02T00:47:15.139Z,998.81
2018-11-02T00:48:15.129Z,998.80
2018-11-02T00:49:15.117Z,998.78
2018-11-02T00:50:15.109Z,998.83
2018-11-02T00:51:15.130Z,998.86
2018-11-02T00:52:15.084Z,998.88
2018-11-02T00:53:15.075Z,998.88
2018-11-02T00:54:15.064Z,998.89
2018-11-02T00:55:15.052Z,998.89
2018-11-02T00:56:15.039Z,998.90
2018-11-02T00:57:15.030Z,998.92
2018-11-02T00:58:15.019Z,998.90
2018-11-02T00:59:15.014Z,998.95
2018-11-02T01:00:14.999Z,998.96
2018-11-02T01:01:14.986Z,999.02
2018-11-02T01:02:14.974Z,999.02
2018-11-02T01:03:15.023Z,999.02
2018-11-02T01:04:14.953Z,999.05
2018-11-02T01:05:14.941Z,999.02
2018-11-02T01:06:14.933Z,999.03
2018-11-02T01:07:14.923Z,999.07
2018-11-02T01:08:14.910Z,999.01
2018-11-02T01:09:14.899Z,999.07
2018-11-02T01:10:14.885Z,999.06
2018-11-02T01:11:14.878Z,999.07
2018-11-02T01:12:14.889Z,999.15
2018-11-02T01:13:14.853Z,999.14
2018-11-02T01:14:14.844Z,999.19
2018-11-02T01:15:14.833Z,999.16
2018-11-02T01:16:14.823Z,999.22
2018-11-02T01:17:14.814Z,999.23
2018-11-02T01:18:14.798Z,999.28
2018-11-02T01:19:14.787Z,999.25
2018-11-02T01:20:14.777Z,999.29
2018-11-02T01:21:14.768Z,999.31
2018-11-02T01:22:14.754Z,999.32
2018-11-02T01:23:14.744Z,999.34
2018-11-02T01:24:14.734Z,999.35
2018-11-02T01:25:14.722Z,999.34
2018-11-02T01:26:14.712Z,999.37
2018-11-02T01:27:14.699Z,999.46
2018-11-02T01:28:14.692Z,999.42
2018-11-02T01:29:14.678Z,999.43
2018-11-02T01:30:14.667Z,999.47
2018-11-02T01:31:14.660Z,999.53
2018-11-02T01:32:14.645Z,999.46
2018-11-02T01:33:14.635Z,999.45
2018-11-02T01:34:14.626Z,999.46
2018-11-02T01:35:14.614Z,999.44
2018-11-02T01:36:14.602Z,999.47
2018-11-02T01:37:14.592Z,999.42
2018-11-02T01:38:14.580Z,999.42
2018-11-02T01:39:14.567Z,999.47
2018-11-02T01:40:14.656Z,999.45
2018-11-02T01:41:14.545Z,999.50
2018-11-02T01:42:14.535Z,999.52
2018-11-02T01:43:14.527Z,999.50
2018-11-02T01:44:14.525Z,999.53
2018-11-02T01:45:14.503Z,999.54
2018-11-02T01:46:14.491Z,999.60
2018-11-02T01:47:14.480Z,999.61
2018-11-02T01:48:14.473Z,999.63
2018-11-02T01:49:14.489Z,999.65
2018-11-02T01:50:14.447Z,999.63
2018-11-02T01:51:14.441Z,999.68
2018-11-02T01:52:14.430Z,999.62
2018-11-02T01:53:14.422Z,999.63
2018-11-02T01:54:14.403Z,999.61
2018-11-02T01:55:14.392Z,999.59
2018-11-02T01:56:14.387Z,999.61
2018-11-02T01:57:14.369Z,999.66
2018-11-02T01:58:14.363Z,999.60
2018-11-02T01:59:14.375Z,999.54
2018-11-02T02:00:14.339Z,999.58
2018-11-02T02:01:14.326Z,999.53
2018-11-02T02:02:14.317Z,999.48
2018-11-02T02:03:14.306Z,999.46
2018-11-02T02:04:14.295Z,999.48
2018-11-02T02:05:14.284Z,999.54
2018-11-02T02:06:14.272Z,999.50
2018-11-02T02:07:14.260Z,999.55
2018-11-02T02:08:14.254Z,999.57
2018-11-02T02:09:14.255Z,999.65
2018-11-02T02:10:14.228Z,999.70
2018-11-02T02:11:14.217Z,999.70
2018-11-02T02:12:14.208Z,999.70
2018-11-02T02:13:14.275Z,999.64
2018-11-02T02:14:14.186Z,999.66
2018-11-02T02:15:14.201Z,999.66
2018-11-02T02:16:14.164Z,999.66
2018-11-02T02:17:14.152Z,999.63
2018-11-02T02:18:14.141Z,999.67
2018-11-02T02:19:14.130Z,999.67
2018-11-02T02:20:14.121Z,999.69
2018-11-02T02:21:14.109Z,999.75
2018-11-02T02:22:14.097Z,999.69
2018-11-02T02:23:14.087Z,999.68
2018-11-02T02:24:14.075Z,999.69
2018-11-02T02:25:14.065Z,999.71
2018-11-02T02:26:14.053Z,999.74
2018-11-02T02:27:14.043Z,999.82
2018-11-02T02:28:14.032Z,999.81
2018-11-02T02:29:14.020Z,999.86
2018-11-02T02:30:14.009Z,999.94
2018-11-02T02:31:13.999Z,999.91
2018-11-02T02:32:13.989Z,999.91
2018-11-02T02:33:13.979Z,999.94
2018-11-02T02:34:13.964Z,999.89
2018-11-02T02:35:13.957Z,999.97
2018-11-02T02:36:13.945Z,999.94
2018-11-02T02:37:13.936Z,1000.01
2018-11-02T02:38:13.924Z,1000.09
2018-11-02T02:39:13.916Z,1000.06
2018-11-02T02:40:13.904Z,1000.08
2018-11-02T02:41:13.890Z,1000.09
2018-11-02T02:42:13.880Z,1000.12
2018-11-02T02:43:13.868Z,1000.14
2018-11-02T02:44:13.856Z,1000.06
2018-11-02T02:45:13.846Z,1000.08
2018-11-02T02:46:13.845Z,1000.10
2018-11-02T02:47:13.825Z,1000.11
2018-11-02T02:48:13.816Z,1000.18
2018-11-02T02:49:13.804Z,1000.10
2018-11-02T02:50:13.791Z,1000.20
2018-11-02T02:51:13.781Z,1000.16
2018-11-02T02:52:13.768Z,1000.19
2018-11-02T02:53:13.760Z,1000.22
2018-11-02T02:54:13.749Z,1000.27
2018-11-02T02:55:13.736Z,1000.22
2018-11-02T02:56:13.726Z,1000.29
2018-11-02T02:57:13.714Z,1000.29
2018-11-02T02:58:13.701Z,1000.24
2018-11-02T02:59:13.696Z,1000.24
2018-11-02T03:00:13.682Z,1000.27
2018-11-02T03:01:13.670Z,1000.22
2018-11-02T03:02:13.661Z,1000.18
2018-11-02T03:03:13.650Z,1000.17
2018-11-02T03:04:13.637Z,1000.13
2018-11-02T03:05:13.631Z,1000.17
2018-11-02T03:06:13.616Z,1000.15
2018-11-02T03:07:13.606Z,1000.16
2018-11-02T03:08:13.625Z,1000.17
2018-11-02T03:09:13.585Z,1000.20
2018-11-02T03:10:13.589Z,1000.22
2018-11-02T03:11:13.851Z,1000.24
2018-11-02T03:12:13.552Z,1000.30
2018-11-02T03:13:13.541Z,1000.26
2018-11-02T03:14:13.529Z,1000.26
2018-11-02T03:15:13.518Z,1000.36
2018-11-02T03:16:13.506Z,1000.43
2018-11-02T03:17:13.498Z,1000.41
2018-11-02T03:18:13.519Z,1000.46
2018-11-02T03:19:13.473Z,1000.47
2018-11-02T03:20:13.465Z,1000.50
2018-11-02T03:21:13.477Z,1000.54
2018-11-02T03:22:13.502Z,1000.52
2018-11-02T03:23:13.432Z,1000.54
2018-11-02T03:24:13.419Z,1000.57
2018-11-02T03:25:13.408Z,1000.63
2018-11-02T03:26:13.397Z,1000.65
2018-11-02T03:27:13.390Z,1000.68
2018-11-02T03:28:13.375Z,1000.75
2018-11-02T03:29:13.365Z,1000.78
2018-11-02T03:30:13.354Z,1000.74
2018-11-02T03:31:13.351Z,1000.84
2018-11-02T03:32:13.333Z,1000.85
2018-11-02T03:33:13.318Z,1000.86
2018-11-02T03:34:13.309Z,1000.92
2018-11-02T03:35:13.298Z,1000.96
2018-11-02T03:36:13.289Z,1000.97
2018-11-02T03:37:13.277Z,1000.99
2018-11-02T03:38:13.276Z,1001.02
2018-11-02T03:39:13.255Z,1001.00
2018-11-02T03:40:13.245Z,1001.00
2018-11-02T03:41:13.230Z,1001.01
2018-11-02T03:42:13.221Z,1001.04
2018-11-02T03:43:13.209Z,1001.04
2018-11-02T03:44:13.201Z,1001.06
2018-11-02T03:45:13.196Z,1001.13
2018-11-02T03:46:13.177Z,1001.17
2018-11-02T03:47:13.165Z,1001.16
2018-11-02T03:48:13.155Z,1001.25
2018-11-02T03:49:13.143Z,1001.25
2018-11-02T03:50:13.132Z,1001.27
2018-11-02T03:51:13.123Z,1001.27
2018-11-02T03:52:13.111Z,1001.35
2018-11-02T03:53:13.098Z,1001.40
2018-11-02T03:54:13.088Z,1001.40
2018-11-02T03:55:13.078Z,1001.43
2018-11-02T03:56:13.068Z,1001.46
2018-11-02T03:57:13.054Z,1001.48
2018-11-02T03:58:13.047Z,1001.56
2018-11-02T03:59:13.032Z,1001.50
2018-11-02T04:00:13.308Z,1001.57
2018-11-02T04:01:13.013Z,1001.54
2018-11-02T04:02:13.002Z,1001.53
2018-11-02T04:03:12.988Z,1001.58
2018-11-02T04:04:12.981Z,1001.59
2018-11-02T04:05:12.968Z,1001.59
2018-11-02T04:06:12.958Z,1001.68
2018-11-02T04:07:12.944Z,1001.69
2018-11-02T04:08:12.936Z,1001.68
2018-11-02T04:09:12.925Z,1001.72
2018-11-02T04:10:12.915Z,1001.71
2018-11-02T04:11:12.902Z,1001.67
2018-11-02T04:12:12.893Z,1001.75
2018-11-02T04:13:12.888Z,1001.79
2018-11-02T04:14:12.884Z,1001.77
2018-11-02T04:15:12.859Z,1001.84
2018-11-02T04:16:12.847Z,1001.88
2018-11-02T04:17:12.838Z,1001.88
2018-11-02T04:18:12.825Z,1001.88
2018-11-02T04:19:12.815Z,1001.88
2018-11-02T04:20:12.803Z,1001.93
2018-11-02T04:21:12.791Z,1001.93
2018-11-02T04:22:12.779Z,1001.91
2018-11-02T04:23:12.778Z,1001.91
2018-11-02T04:24:12.757Z,1001.94
2018-11-02T04:25:12.748Z,1001.97
2018-11-02T04:26:12.739Z,1002.00
2018-11-02T04:27:12.725Z,1002.00
2018-11-02T04:28:12.717Z,1001.99
2018-11-02T04:29:12.721Z,1002.00
2018-11-02T04:30:12.693Z,1001.99
2018-11-02T04:31:12.683Z,1001.98
2018-11-02T04:32:12.694Z,1001.97
2018-11-02T04:33:12.661Z,1002.00
2018-11-02T04:34:12.651Z,1002.00
2018-11-02T04:35:12.639Z,1002.01
2018-11-02T04:36:12.629Z,1002.04
2018-11-02T04:37:12.618Z,1002.06
2018-11-02T04:38:12.610Z,1002.11
2018-11-02T04:39:12.594Z,1002.12
2018-11-02T04:40:12.586Z,1002.16
2018-11-02T04:41:12.579Z,1002.18
2018-11-02T04:42:12.560Z,1002.25
2018-11-02T04:43:12.551Z,1002.32
2018-11-02T04:44:12.541Z,1002.31
2018-11-02T04:45:12.528Z,1002.29
2018-11-02T04:46:12.517Z,1002.34
2018-11-02T04:47:12.509Z,1002.30
2018-11-02T04:48:12.511Z,1002.32
2018-11-02T04:49:12.485Z,1002.39
2018-11-02T04:50:12.486Z,1002.42
2018-11-02T04:51:12.645Z,1002.41
2018-11-02T04:52:12.451Z,1002.49
2018-11-02T04:53:12.444Z,1002.46
2018-11-02T04:54:12.480Z,1002.48
2018-11-02T04:55:12.421Z,1002.51
2018-11-02T04:56:12.407Z,1002.52
2018-11-02T04:57:12.399Z,1002.53
2018-11-02T04:58:12.388Z,1002.56
2018-11-02T04:59:12.379Z,1002.63
2018-11-02T05:00:12.367Z,1002.66
2018-11-02T05:01:12.357Z,1002.71
2018-11-02T05:02:12.345Z,1002.73
2018-11-02T05:03:12.331Z,1002.79
2018-11-02T05:04:12.320Z,1002.78
2018-11-02T05:05:12.311Z,1002.79
2018-11-02T05:06:12.302Z,1002.82
2018-11-02T05:07:12.286Z,1002.89
2018-11-02T05:08:12.278Z,1002.92
2018-11-02T05:09:12.267Z,1002.91
2018-11-02T05:10:12.256Z,1002.92
2018-11-02T05:11:12.257Z,1002.97
2018-11-02T05:12:12.232Z,1002.94
2018-11-02T05:13:12.221Z,1002.98
2018-11-02T05:14:12.212Z,1003.02
2018-11-02T05:15:12.203Z,1003.01
2018-11-02T05:16:12.189Z,1003.07
2018-11-02T05:17:12.179Z,1003.05
2018-11-02T05:18:12.169Z,1003.06
2018-11-02T05:19:12.158Z,1003.10
2018-11-02T05:20:12.145Z,1003.12
2018-11-02T05:21:12.307Z,1003.15
2018-11-02T05:22:12.124Z,1003.11
2018-11-02T05:23:12.113Z,1003.14
2018-11-02T05:24:12.101Z,1003.08
2018-11-02T05:25:12.093Z,1003.13
2018-11-02T05:26:12.080Z,1003.15
2018-11-02T05:27:12.068Z,1003.16
2018-11-02T05:28:12.060Z,1003.16
2018-11-02T05:29:12.046Z,1003.06
2018-11-02T05:30:12.037Z,1003.13
2018-11-02T05:31:12.036Z,1003.13
2018-11-02T05:32:12.014Z,1003.13
2018-11-02T05:33:12.004Z,1003.14
2018-11-02T05:34:11.993Z,1003.17
2018-11-02T05:35:11.983Z,1003.17
2018-11-02T05:36:11.970Z,1003.16
2018-11-02T05:37:11.959Z,1003.21
2018-11-02T05:38:11.948Z,1003.22
2018-11-02T05:39:11.939Z,1003.22
2018-11-02T05:40:11.926Z,1003.30
2018-11-02T05:41:11.917Z,1003.27
2018-11-02T05:42:11.905Z,1003.33
2018-11-02T05:43:11.896Z,1003.36
2018-11-02T05:44:11.883Z,1003.34
2018-11-02T05:45:11.873Z,1003.41
2018-11-02T05:46:11.862Z,1003.38
2018-11-02T05:47:11.927Z,1003.37
2018-11-02T05:48:11.842Z,1003.40
2018-11-02T05:49:11.835Z,1003.40
2018-11-02T05:50:11.817Z,1003.44
2018-11-02T05:51:11.809Z,1003.48
2018-11-02T05:52:11.796Z,1003.53
2018-11-02T05:53:11.785Z,1003.51
2018-11-02T05:54:11.960Z,1003.62
2018-11-02T05:55:11.763Z,1003.58
2018-11-02T05:56:11.751Z,1003.58
2018-11-02T05:57:11.742Z,1003.64
2018-11-02T05:58:11.730Z,1003.62
2018-11-02T05:59:11.721Z,1003.63
2018-11-02T06:00:11.715Z,1003.68
2018-11-02T06:01:11.701Z,1003.66
2018-11-02T06:02:11.691Z,1003.68
2018-11-02T06:03:11.678Z,1003.71
2018-11-02T06:04:11.665Z,1003.68
2018-11-02T06:05:11.655Z,1003.70
2018-11-02T06:06:11.645Z,1003.76
2018-11-02T06:07:11.637Z,1003.83
2018-11-02T06:08:11.655Z,1003.77
2018-11-02T06:09:11.612Z,1003.83
2018-11-02T06:10:11.602Z,1003.85
2018-11-02T06:11:11.590Z,1003.88
2018-11-02T06:12:11.592Z,1003.91
2018-11-02T06:13:11.567Z,1003.89
2018-11-02T06:14:11.558Z,1003.86
2018-11-02T06:15:11.547Z,1003.87
2018-11-02T06:16:11.536Z,1003.91
2018-11-02T06:17:11.528Z,1003.90
2018-11-02T06:18:11.512Z,1003.95
2018-11-02T06:19:11.505Z,1003.91
2018-11-02T06:20:11.495Z,1003.94
2018-11-02T06:21:11.482Z,1003.97
2018-11-02T06:22:11.475Z,1004.03
2018-11-02T06:23:11.458Z,1003.98
2018-11-02T06:24:11.490Z,1004.05
2018-11-02T06:25:11.444Z,1004.01
2018-11-02T06:26:11.428Z,1004.10
2018-11-02T06:27:11.416Z,1004.21
2018-11-02T06:28:11.402Z,1004.20
2018-11-02T06:29:11.394Z,1004.23
2018-11-02T06:30:11.388Z,1004.24
2018-11-02T06:31:11.370Z,1004.30
2018-11-02T06:32:11.360Z,1004.28
2018-11-02T06:33:11.351Z,1004.27
2018-11-02T06:34:11.339Z,1004.28
2018-11-02T06:35:11.330Z,1004.25
2018-11-02T06:36:11.318Z,1004.28
2018-11-02T06:37:11.306Z,1004.28
2018-11-02T06:38:11.295Z,1004.23
2018-11-02T06:39:11.285Z,1004.24
2018-11-02T06:40:11.275Z,1004.27
2018-11-02T06:41:11.262Z,1004.29
2018-11-02T06:42:11.251Z,1004.30
2018-11-02T06:43:11.241Z,1004.33
2018-11-02T06:44:11.229Z,1004.38
2018-11-02T06:45:11.294Z,1004.38
2018-11-02T06:46:11.208Z,1004.39
2018-11-02T06:47:11.195Z,1004.49
2018-11-02T06:48:11.188Z,1004.50
2018-11-02T06:49:11.176Z,1004.46
2018-11-02T06:50:11.199Z,1004.52
2018-11-02T06:51:11.156Z,1004.53
2018-11-02T06:52:11.150Z,1004.58
2018-11-02T06:53:11.145Z,1004.64
2018-11-02T06:54:11.123Z,1004.63
2018-11-02T06:55:11.109Z,1004.73
2018-11-02T06:56:11.099Z,1004.68
2018-11-02T06:57:11.089Z,1004.68
2018-11-02T06:58:11.090Z,1004.65
2018-11-02T06:59:11.172Z,1004.65
2018-11-02T07:00:11.250Z,1004.69
2018-11-02T07:01:11.045Z,1004.70
2018-11-02T07:02:11.034Z,1004.75
2018-11-02T07:03:11.023Z,1004.77
2018-11-02T07:04:11.011Z,1004.82
2018-11-02T07:05:11.002Z,1004.85
2018-11-02T07:06:10.988Z,1004.82
2018-11-02T07:07:11.036Z,1004.87
2018-11-02T07:08:11.315Z,1004.87
2018-11-02T07:09:10.985Z,1004.90
2018-11-02T07:10:10.946Z,1004.92
2018-11-02T07:11:10.935Z,1004.96
2018-11-02T07:12:10.924Z,1004.87
2018-11-02T07:13:10.912Z,1004.87
2018-11-02T07:14:10.903Z,1004.92
2018-11-02T07:15:10.894Z,1004.86
2018-11-02T07:16:10.903Z,1004.88
2018-11-02T07:17:10.869Z,1004.88
2018-11-02T07:18:10.860Z,1004.88
2018-11-02T07:19:10.849Z,1004.88
2018-11-02T07:20:10.870Z,1004.92
2018-11-02T07:21:10.829Z,1004.92
2018-11-02T07:22:10.816Z,1004.92
2018-11-02T07:23:10.806Z,1004.95
2018-11-02T07:24:10.797Z,1004.95
2018-11-02T07:25:10.829Z,1004.99
2018-11-02T07:26:10.773Z,1005.02
2018-11-02T07:27:10.762Z,1004.99
2018-11-02T07:28:10.784Z,1005.05
2018-11-02T07:29:10.740Z,1005.08
2018-11-02T07:30:10.729Z,1005.06
2018-11-02T07:31:10.720Z,1005.08
2018-11-02T07:32:10.707Z,1005.12
2018-11-02T07:33:10.713Z,1005.17
2018-11-02T07:34:10.750Z,1005.22
2018-11-02T07:35:10.673Z,1005.20
2018-11-02T07:36:10.661Z,1005.21
2018-11-02T07:37:10.653Z,1005.25
2018-11-02T07:38:10.641Z,1005.24
2018-11-02T07:39:10.629Z,1005.23
2018-11-02T07:40:10.621Z,1005.24
2018-11-02T07:41:10.607Z,1005.26
2018-11-02T07:42:10.599Z,1005.27
2018-11-02T07:43:10.588Z,1005.25
2018-11-02T07:44:10.575Z,1005.28
2018-11-02T07:45:10.566Z,1005.29
2018-11-02T07:46:10.556Z,1005.33
2018-11-02T07:47:10.542Z,1005.33
2018-11-02T07:48:10.534Z,1005.29
2018-11-02T07:49:10.524Z,1005.34
2018-11-02T07:50:10.511Z,1005.29
2018-11-02T07:51:10.499Z,1005.34
2018-11-02T07:52:10.487Z,1005.29
2018-11-02T07:53:10.478Z,1005.27
2018-11-02T07:54:10.465Z,1005.27
2018-11-02T07:55:10.465Z,1005.31
2018-11-02T07:56:10.443Z,1005.27
2018-11-02T07:57:10.434Z,1005.33
2018-11-02T07:58:10.433Z,1005.26
2018-11-02T07:59:10.411Z,1005.27
2018-11-02T08:00:10.406Z,1005.27
2018-11-02T08:01:10.390Z,1005.28
2018-11-02T08:02:10.386Z,1005.28
2018-11-02T08:03:10.368Z,1005.34
2018-11-02T08:04:10.356Z,1005.29
2018-11-02T08:05:10.347Z,1005.31
2018-11-02T08:06:10.334Z,1005.32
2018-11-02T08:07:10.324Z,1005.28
2018-11-02T08:08:10.314Z,1005.36
2018-11-02T08:09:10.301Z,1005.37
2018-11-02T08:10:10.291Z,1005.35
2018-11-02T08:11:10.324Z,1005.36
2018-11-02T08:12:10.271Z,1005.35
2018-11-02T08:13:10.259Z,1005.40
2018-11-02T08:14:10.245Z,1005.37
2018-11-02T08:15:10.237Z,1005.34
2018-11-02T08:16:10.226Z,1005.32
2018-11-02T08:17:10.214Z,1005.31
2018-11-02T08:18:10.204Z,1005.29
2018-11-02T08:19:10.283Z,1005.30
2018-11-02T08:20:10.182Z,1005.33
2018-11-02T08:21:10.168Z,1005.34
2018-11-02T08:22:10.158Z,1005.36
2018-11-02T08:23:10.148Z,1005.43
2018-11-02T08:24:10.142Z,1005.39
2018-11-02T08:25:10.129Z,1005.47
2018-11-02T08:26:10.115Z,1005.46
2018-11-02T08:27:10.107Z,1005.46
2018-11-02T08:28:10.101Z,1005.42
2018-11-02T08:29:10.082Z,1005.47
2018-11-02T08:30:10.070Z,1005.44
2018-11-02T08:31:10.059Z,1005.47
2018-11-02T08:32:10.187Z,1005.50
2018-11-02T08:33:10.040Z,1005.52
2018-11-02T08:34:10.025Z,1005.51
2018-11-02T08:35:10.016Z,1005.50
2018-11-02T08:36:10.006Z,1005.53
2018-11-02T08:37:09.993Z,1005.55
2018-11-02T08:38:09.983Z,1005.52
2018-11-02T08:39:09.971Z,1005.55
2018-11-02T08:40:09.960Z,1005.63
2018-11-02T08:41:09.951Z,1005.66
2018-11-02T08:42:09.937Z,1005.69
2018-11-02T08:43:09.932Z,1005.73
2018-11-02T08:44:09.915Z,1005.71
2018-11-02T08:45:09.908Z,1005.74
2018-11-02T08:46:09.894Z,1005.75
2018-11-02T08:47:09.883Z,1005.82
2018-11-02T08:48:09.873Z,1005.79
2018-11-02T08:49:09.862Z,1005.83
2018-11-02T08:50:09.854Z,1005.85
2018-11-02T08:51:09.839Z,1005.83
2018-11-02T08:52:09.916Z,1005.85
2018-11-02T08:53:09.819Z,1005.84
2018-11-02T08:54:09.808Z,1005.81
2018-11-02T08:55:09.796Z,1005.82
2018-11-02T08:56:09.789Z,1005.80
2018-11-02T08:57:09.774Z,1005.73
2018-11-02T08:58:09.907Z,1005.76
2018-11-02T08:59:09.765Z,1005.74
2018-11-02T09:00:09.854Z,1005.72
2018-11-02T09:01:09.733Z,1005.78
2018-11-02T09:02:09.719Z,1005.72
2018-11-02T09:03:09.709Z,1005.79
2018-11-02T09:04:09.696Z,1005.83
2018-11-02T09:05:09.842Z,1005.84
2018-11-02T09:06:09.676Z,1005.92
2018-11-02T09:07:09.665Z,1005.89
2018-11-02T09:08:09.653Z,1005.95
2018-11-02T09:09:09.642Z,1005.95
2018-11-02T09:10:09.633Z,1005.95
2018-11-02T09:11:09.624Z,1005.96
2018-11-02T09:12:09.694Z,1005.99
2018-11-02T09:13:09.598Z,1005.95
2018-11-02T09:14:09.589Z,1006.01
2018-11-02T09:15:09.578Z,1006.02
2018-11-02T09:16:09.564Z,1006.04
2018-11-02T09:17:09.554Z,1006.06
2018-11-02T09:18:09.550Z,1006.05
2018-11-02T09:19:09.548Z,1006.03
2018-11-02T09:20:09.520Z,1006.05
2018-11-02T09:21:09.510Z,1006.10
2018-11-02T09:22:09.499Z,1006.03
2018-11-02T09:23:09.488Z,1006.11
2018-11-02T09:24:09.477Z,1006.10
2018-11-02T09:25:09.468Z,1006.11
2018-11-02T09:26:09.457Z,1006.10
2018-11-02T09:27:09.443Z,1006.13
2018-11-02T09:28:09.543Z,1006.19
2018-11-02T09:29:09.425Z,1006.24
2018-11-02T09:30:09.411Z,1006.24
2018-11-02T09:31:09.401Z,1006.27
2018-11-02T09:32:09.390Z,1006.26
2018-11-02T09:33:09.376Z,1006.23
2018-11-02T09:34:09.368Z,1006.31
2018-11-02T09:35:09.357Z,1006.27
2018-11-02T09:36:09.345Z,1006.33
2018-11-02T09:37:09.335Z,1006.38
2018-11-02T09:38:09.322Z,1006.37
2018-11-02T09:39:09.313Z,1006.44
2018-11-02T09:40:09.349Z,1006.41
2018-11-02T09:41:09.289Z,1006.46
2018-11-02T09:42:09.280Z,1006.52
2018-11-02T09:43:09.269Z,1006.56
2018-11-02T09:44:09.258Z,1006.53
2018-11-02T09:45:09.247Z,1006.53
2018-11-02T09:46:09.235Z,1006.61
2018-11-02T09:47:09.223Z,1006.60
2018-11-02T09:48:09.211Z,1006.60
2018-11-02T09:49:09.202Z,1006.62
2018-11-02T09:50:09.196Z,1006.62
2018-11-02T09:51:09.180Z,1006.64
2018-11-02T09:52:09.319Z,1006.66
2018-11-02T09:53:09.160Z,1006.66
2018-11-02T09:54:09.145Z,1006.66
2018-11-02T09:55:09.135Z,1006.70
2018-11-02T09:56:09.130Z,1006.67
2018-11-02T09:57:09.113Z,1006.64
2018-11-02T09:58:09.103Z,1006.66
2018-11-02T09:59:09.090Z,1006.61
2018-11-02T10:00:09.081Z,1006.60
2018-11-02T10:01:09.079Z,1006.64
2018-11-02T10:02:09.137Z,1006.63
2018-11-02T10:03:09.048Z,1006.71
2018-11-02T10:04:09.034Z,1006.70
2018-11-02T10:05:09.025Z,1006.73
2018-11-02T10:06:09.016Z,1006.75
2018-11-02T10:07:09.003Z,1006.68
2018-11-02T10:08:08.992Z,1006.74
2018-11-02T10:09:09.035Z,1006.74
2018-11-02T10:10:08.971Z,1006.73
2018-11-02T10:11:08.962Z,1006.72
2018-11-02T10:12:08.950Z,1006.76
2018-11-02T10:13:08.948Z,1006.69
2018-11-02T10:14:08.930Z,1006.70
2018-11-02T10:15:08.916Z,1006.69
2018-11-02T10:16:08.905Z,1006.71
2018-11-02T10:17:08.893Z,1006.76
2018-11-02T10:18:08.883Z,1006.76
2018-11-02T10:19:08.872Z,1006.81
2018-11-02T10:20:08.859Z,1006.77
2018-11-02T10:21:08.849Z,1006.77
2018-11-02T10:22:08.836Z,1006.74
2018-11-02T10:23:08.829Z,1006.76
2018-11-02T10:24:08.817Z,1006.78
2018-11-02T10:25:08.805Z,1006.75
2018-11-02T10:26:08.797Z,1006.80
2018-11-02T10:27:08.782Z,1006.84
2018-11-02T10:28:08.835Z,1006.85
2018-11-02T10:29:08.761Z,1006.85
2018-11-02T10:30:08.761Z,1006.81
2018-11-02T10:31:08.739Z,1006.78
2018-11-02T10:32:08.730Z,1006.80
2018-11-02T10:33:08.720Z,1006.83
2018-11-02T10:34:08.706Z,1006.86
2018-11-02T10:35:08.707Z,1006.90
2018-11-02T10:36:08.855Z,1006.94
2018-11-02T10:37:08.688Z,1006.92
2018-11-02T10:38:08.666Z,1006.92
2018-11-02T10:39:08.650Z,1006.94
2018-11-02T10:40:08.641Z,1006.97
2018-11-02T10:41:08.627Z,1006.93
2018-11-02T10:42:08.617Z,1007.01
2018-11-02T10:43:08.609Z,1007.01
2018-11-02T10:44:08.636Z,1007.00
2018-11-02T10:45:08.586Z,1006.98
2018-11-02T10:46:08.574Z,1007.01
2018-11-02T10:47:08.563Z,1007.02
2018-11-02T10:48:08.556Z,1007.02
2018-11-02T10:49:08.607Z,1007.02
2018-11-02T10:50:08.535Z,1007.08
2018-11-02T10:51:08.539Z,1007.07
2018-11-02T10:52:08.512Z,1007.10
2018-11-02T10:53:08.496Z,1007.07
2018-11-02T10:54:08.485Z,1007.07
2018-11-02T10:55:08.475Z,1007.09
2018-11-02T10:56:08.461Z,1007.14
2018-11-02T10:57:08.484Z,1007.09
2018-11-02T10:58:08.443Z,1007.12
2018-11-02T10:59:08.434Z,1007.08
2018-11-02T11:00:08.419Z,1007.06
2018-11-02T11:01:08.595Z,1007.09
2018-11-02T11:02:08.400Z,1007.04
2018-11-02T11:03:08.390Z,1007.13
2018-11-02T11:04:08.377Z,1007.12
2018-11-02T11:05:08.405Z,1007.12
2018-11-02T11:06:08.353Z,1007.12
2018-11-02T11:07:08.342Z,1007.14
2018-11-02T11:08:08.331Z,1007.13
2018-11-02T11:09:08.319Z,1007.17
2018-11-02T11:10:08.347Z,1007.17
2018-11-02T11:11:08.297Z,1007.17
2018-11-02T11:12:08.318Z,1007.20
2018-11-02T11:13:08.522Z,1007.17
2018-11-02T11:14:08.263Z,1007.15
2018-11-02T11:15:08.252Z,1007.14
2018-11-02T11:16:08.243Z,1007.19
2018-11-02T11:17:08.232Z,1007.20
2018-11-02T11:18:08.224Z,1007.17
2018-11-02T11:19:08.210Z,1007.22
2018-11-02T11:20:08.200Z,1007.21
2018-11-02T11:21:08.246Z,1007.28
2018-11-02T11:22:08.177Z,1007.28
2018-11-02T11:23:08.167Z,1007.26
2018-11-02T11:24:08.164Z,1007.26
2018-11-02T11:25:08.144Z,1007.29
2018-11-02T11:26:08.132Z,1007.31
2018-11-02T11:27:08.122Z,1007.28
2018-11-02T11:28:08.117Z,1007.34
2018-11-02T11:29:08.137Z,1007.32
2018-11-02T11:30:08.089Z,1007.35
2018-11-02T11:31:08.078Z,1007.34
2018-11-02T11:32:08.067Z,1007.35
2018-11-02T11:33:08.057Z,1007.37
2018-11-02T11:34:08.047Z,1007.36
2018-11-02T11:35:08.041Z,1007.32
2018-11-02T11:36:08.024Z,1007.39
2018-11-02T11:37:08.012Z,1007.40
2018-11-02T11:38:07.999Z,1007.38
2018-11-02T11:39:07.988Z,1007.37
2018-11-02T11:40:07.977Z,1007.39
2018-11-02T11:41:07.969Z,1007.44
2018-11-02T11:42:07.956Z,1007.46
2018-11-02T11:43:07.943Z,1007.40
2018-11-02T11:44:07.935Z,1007.42
2018-11-02T11:45:07.922Z,1007.45
2018-11-02T11:46:07.912Z,1007.40
2018-11-02T11:47:07.904Z,1007.41
2018-11-02T11:48:07.889Z,1007.43
2018-11-02T11:49:07.964Z,1007.42
2018-11-02T11:50:07.870Z,1007.44
2018-11-02T11:51:07.856Z,1007.39
2018-11-02T11:52:07.852Z,1007.45
2018-11-02T11:53:07.834Z,1007.39
2018-11-02T11:54:07.824Z,1007.38
2018-11-02T11:55:07.815Z,1007.40
2018-11-02T11:56:07.807Z,1007.37
2018-11-02T11:57:07.790Z,1007.37
2018-11-02T11:58:07.784Z,1007.36
2018-11-02T11:59:07.768Z,1007.34
2018-11-02T12:00:07.759Z,1007.40
2018-11-02T12:01:07.746Z,1007.34
2018-11-02T12:02:07.741Z,1007.34
2018-11-02T12:03:07.725Z,1007.32
2018-11-02T12:04:07.747Z,1007.28
2018-11-02T12:05:07.705Z,1007.38
2018-11-02T12:06:07.693Z,1007.34
2018-11-02T12:07:07.680Z,1007.37
2018-11-02T12:08:07.669Z,1007.35
2018-11-02T12:09:07.686Z,1007.33
2018-11-02T12:10:07.677Z,1007.40
2018-11-02T12:11:07.638Z,1007.36
2018-11-02T12:12:07.628Z,1007.36
2018-11-02T12:13:07.616Z,1007.32
2018-11-02T12:14:07.604Z,1007.35
2018-11-02T12:15:07.593Z,1007.41
2018-11-02T12:16:07.662Z,1007.37